SBIH

Details ICAO SBIH
Name ITAITUBA
Region Brazil
Timezone America/Santarem (UTC-3.0)
Plans Departing 8
Arriving 11
Stats Elevation 110 ft / 34 m (AMSL)
Location -4.242343° -56.000671°
Runways 1
Magnetic Variation 17.935° W
Sunrise 2018-05-22 09:44:52 UTC / 2018-05-22 06:44:52 Local
Sunset 2018-05-22 21:39:21 UTC / 2018-05-22 18:39:21 Local
Advertisement - Login to hide

Runways

ID Width Length Bearing (true) Bearing (mag) Surface Threshold Offset Overrun Length
05 98 ft / 30 m 5,316 ft / 1,620 m 37.39° 55.33° Asphalt 0 ft / 0 m 0 ft / 0 m
23 98 ft / 30 m 5,316 ft / 1,620 m 217.39° 235.33° Asphalt 0 ft / 0 m 0 ft / 0 m

Map

Weather


0- 5 10 15 20 25 30 35+ Temperature / ° C

Clouds and Precipitation
Forecast for 2018-05-22 06:00 UTC. Updated 3 hours ago

Ground ~20,000 ft ~40,000 ft Winds

METAR

Not found

TAF

TAF SBIH 220400Z 2206/2218 00000KT 8000 SCT006 TN25/2211Z TX33/2217Z PROB30 2208/2211 4000 BR BECMG 2213/2215 09005KT 9999 SCT015 RMK PEN

Frequencies

Tower 118.40 MHz TWR
Warning: Do not use this data for real-world aviation or navigation. No guarantee of current accuracy is given.